Poplar Bluff, MO (63901)

10:58 AM CDT on May 05, 2015 (GMT -0500)
Poplar Bluff 7 NW | | Change Station
CLOSE
Current Station
Personal Weather Station
Location: Poplar Bluff, MO
Elevation: 449 ft
Nearby Weather Stations

Elev 449 ft 36.83 °N, 90.52 °W | Updated 1 second ago

Clear
Clear
76.5 °F
Feels Like 78 °F
N
1.0
Wind Variable Wind from SW
Gusts 8.0 mph

Today
High -- | Low -- °F
--% Chance of Precip.
Yesterday
High -- | Low -- °F
Precip. -- in
6:03 AM 7:53 PM
Full, 98% visible
Pressure 30.20 in
Visibility 10.0 miles
Clouds Clear
Heat Index 78 °F
Dew Point 64 °F
Humidity 66%
Rainfall 0.00 in
Snow Depth Not available.
UV 3 out of 12
Pollen 10.30 out of 12
Air Quality Not available.
Flu Activity Sporadic
METAR KPOF 051353Z AUTO VRB05KT 10SM CLR 22/14 A3021 RMK AO2 SLP226 T02220144

More Conditions Fewer Conditions

Pressure 30.20 in
Visibility 10.0 miles
Clouds Clear
Heat Index 78 °F
Dew Point 64 °F
Humidity 66%
Rainfall 0.00 in
Snow Depth Not available.
UV 3 out of 12
Pollen 10.30 out of 12
Air Quality Not available.
Flu Activity Sporadic
METAR KPOF 051353Z AUTO VRB05KT 10SM CLR 22/14 A3021 RMK AO2 SLP226 T02220144

More Conditions Fewer Conditions

10-Day Weather Forecast

Almanac

Astronomy

May. 05, 2015 Rise Set
Actual Time
Civil Twilight
Nautical Twilight
Astronomical Twilight
Moon
Length of Visible Light
Length of Day
Tomorrow will be .
, % of the Moon is Illuminated

Today's Extremes

State Highs State Lows

Community

WunderPhotos

Upload Photos

1,818,922 photos uploaded!

WunderBlogs® & News

Nearby

Air Quality

  Air Quality AQ Index Pollutant
Not available.

Snow Depth

Station Depth Elevation

Earthquake Activity

City Distance Mag. Time & Date
Minimum magnitude displayed is 2.5.

Coastal Water Temperatures

Place Temperature

Stations

Nearby Weather Stations

Station Location Temp. Windchill Dew Point Humidity Wind Precip. Elev Updated Type